createdAt,value
2017-02-09T00:01:01.056Z,0
2017-02-09T00:02:13.969Z,0
2017-02-09T00:03:27.019Z,0
2017-02-09T00:04:40.029Z,0
2017-02-09T00:05:53.078Z,0
2017-02-09T00:07:06.093Z,0
2017-02-09T00:08:19.107Z,0
2017-02-09T00:09:32.118Z,0
2017-02-09T00:10:45.159Z,0
2017-02-09T00:11:57.805Z,0
2017-02-09T00:13:10.804Z,0
2017-02-09T00:14:23.818Z,0
2017-02-09T00:15:36.835Z,0
2017-02-09T00:16:49.465Z,0
2017-02-09T00:18:02.509Z,0
2017-02-09T00:19:15.548Z,0
2017-02-09T00:20:28.577Z,0
2017-02-09T00:21:41.611Z,0
2017-02-09T00:22:54.634Z,0
2017-02-09T00:24:07.338Z,0
2017-02-09T00:25:20.374Z,0
2017-02-09T00:26:32.998Z,0
2017-02-09T00:27:46.051Z,0
2017-02-09T00:28:59.069Z,0
2017-02-09T00:30:12.120Z,0
2017-02-09T00:31:25.128Z,0
2017-02-09T00:32:38.154Z,0
2017-02-09T00:33:50.780Z,0
2017-02-09T00:35:03.805Z,0
2017-02-09T00:36:16.816Z,0
2017-02-09T00:37:29.846Z,0
2017-02-09T00:38:42.112Z,0
2017-02-09T00:39:55.131Z,0
2017-02-09T00:41:08.144Z,0
2017-02-09T00:42:20.794Z,0
2017-02-09T00:43:33.841Z,0
2017-02-09T00:44:46.882Z,0
2017-02-09T00:45:59.885Z,0
2017-02-09T00:47:12.887Z,0
2017-02-09T00:48:25.906Z,0
2017-02-09T00:49:38.948Z,0
2017-02-09T00:50:51.969Z,0
2017-02-09T00:52:04.970Z,0
2017-02-09T00:53:17.586Z,0
2017-02-09T00:54:30.582Z,0
2017-02-09T00:55:43.606Z,0
2017-02-09T00:56:56.927Z,0
2017-02-09T00:58:09.971Z,0
2017-02-09T00:59:22.958Z,0
2017-02-09T01:00:35.982Z,0
2017-02-09T01:01:49.033Z,0
2017-02-09T01:03:02.037Z,0
2017-02-09T01:04:14.684Z,0
2017-02-09T01:05:27.716Z,0
2017-02-09T01:06:40.762Z,0
2017-02-09T01:07:53.803Z,0
2017-02-09T01:09:06.806Z,0
2017-02-09T01:10:19.457Z,0
2017-02-09T01:11:32.500Z,0
2017-02-09T01:12:45.148Z,0
2017-02-09T01:13:58.168Z,0
2017-02-09T01:15:11.182Z,0
2017-02-09T01:16:24.183Z,0
2017-02-09T01:17:37.179Z,0
2017-02-09T01:18:50.179Z,0
2017-02-09T01:20:03.216Z,0
2017-02-09T01:21:15.870Z,0
2017-02-09T01:22:28.912Z,0
2017-02-09T01:23:41.926Z,0
2017-02-09T01:24:54.957Z,0
2017-02-09T01:26:07.999Z,0
2017-02-09T01:27:20.623Z,0
2017-02-09T01:28:33.662Z,0
2017-02-09T01:29:46.940Z,0
2017-02-09T01:30:59.949Z,0
2017-02-09T01:32:12.953Z,0
2017-02-09T01:33:25.995Z,0
2017-02-09T01:34:39.026Z,0
2017-02-09T01:35:52.022Z,0
2017-02-09T01:37:05.058Z,0
2017-02-09T01:38:17.709Z,0
2017-02-09T01:39:30.732Z,0
2017-02-09T01:40:43.750Z,0
2017-02-09T01:41:56.390Z,0
2017-02-09T01:43:09.394Z,0
2017-02-09T01:44:22.413Z,0
2017-02-09T01:45:35.429Z,0
2017-02-09T01:46:48.434Z,0
2017-02-09T01:48:01.445Z,0
2017-02-09T01:49:14.475Z,0
2017-02-09T01:50:27.513Z,0
2017-02-09T01:51:40.580Z,0
2017-02-09T01:52:53.587Z,0
2017-02-09T01:54:06.629Z,0
2017-02-09T01:55:19.247Z,0
2017-02-09T01:56:32.249Z,0
2017-02-09T01:57:45.567Z,0
2017-02-09T01:58:58.566Z,0
2017-02-09T02:00:11.584Z,0
2017-02-09T02:01:24.605Z,0
2017-02-09T02:02:37.225Z,0
2017-02-09T02:03:49.838Z,0
2017-02-09T02:05:02.871Z,0
2017-02-09T02:06:15.517Z,0
2017-02-09T02:07:28.559Z,0
2017-02-09T02:08:41.576Z,0
2017-02-09T02:09:54.622Z,0
2017-02-09T02:11:07.648Z,0
2017-02-09T02:12:20.670Z,0
2017-02-09T02:13:33.708Z,0
2017-02-09T02:14:46.734Z,0
2017-02-09T02:15:59.726Z,0
2017-02-09T02:17:12.754Z,0
2017-02-09T02:18:25.797Z,0
2017-02-09T02:19:38.842Z,0
2017-02-09T02:20:51.856Z,0
2017-02-09T02:22:04.858Z,0
2017-02-09T02:23:17.501Z,0
2017-02-09T02:24:30.505Z,0
2017-02-09T02:25:43.547Z,0
2017-02-09T02:26:56.163Z,0
2017-02-09T02:28:09.186Z,0
2017-02-09T02:29:22.176Z,0
2017-02-09T02:30:35.202Z,0
2017-02-09T02:31:48.247Z,0
2017-02-09T02:33:01.277Z,0
2017-02-09T02:34:14.314Z,0
2017-02-09T02:35:27.355Z,0
2017-02-09T02:36:40.380Z,0
2017-02-09T02:37:53.402Z,0
2017-02-09T02:39:06.444Z,0
2017-02-09T02:40:19.091Z,0
2017-02-09T02:41:31.727Z,0
2017-02-09T02:42:44.763Z,0
2017-02-09T02:43:57.403Z,0
2017-02-09T02:45:10.423Z,0
2017-02-09T02:46:23.426Z,0
2017-02-09T02:47:36.439Z,0
2017-02-09T02:48:49.067Z,0
2017-02-09T02:50:01.707Z,0
2017-02-09T02:51:14.339Z,0
2017-02-09T02:52:27.609Z,0
2017-02-09T02:53:40.619Z,0
2017-02-09T02:54:53.247Z,0
2017-02-09T02:56:06.272Z,0
2017-02-09T02:57:18.919Z,0
2017-02-09T02:58:31.953Z,0
2017-02-09T02:59:44.956Z,0
2017-02-09T03:00:57.956Z,0
2017-02-09T03:02:10.991Z,0
2017-02-09T03:03:24.297Z,0
2017-02-09T03:04:37.294Z,0
2017-02-09T03:05:50.314Z,0
2017-02-09T03:07:03.357Z,0
2017-02-09T03:08:15.981Z,0
2017-02-09T03:09:29.001Z,0
2017-02-09T03:10:42.061Z,0
2017-02-09T03:11:55.087Z,0
2017-02-09T03:13:08.092Z,0
2017-02-09T03:14:21.107Z,0
2017-02-09T03:15:34.130Z,0
2017-02-09T03:16:47.148Z,0
2017-02-09T03:18:00.169Z,0
2017-02-09T03:19:13.186Z,0
2017-02-09T03:20:26.228Z,0
2017-02-09T03:21:39.250Z,0
2017-02-09T03:22:52.270Z,0
2017-02-09T03:24:05.328Z,0
2017-02-09T03:25:18.619Z,0
2017-02-09T03:26:31.634Z,0
2017-02-09T03:27:44.722Z,0
2017-02-09T03:28:57.463Z,0
2017-02-09T03:30:10.155Z,0
2017-02-09T03:31:23.258Z,0
2017-02-09T03:32:36.367Z,0
2017-02-09T03:33:49.076Z,0
2017-02-09T03:35:01.764Z,0
2017-02-09T03:36:14.856Z,0
2017-02-09T03:37:27.909Z,0
2017-02-09T03:38:40.979Z,0
2017-02-09T03:39:54.094Z,0
2017-02-09T03:41:07.172Z,0
2017-02-09T03:42:20.271Z,0
2017-02-09T03:43:33.372Z,0
2017-02-09T03:44:46.459Z,0
2017-02-09T03:45:59.158Z,0
2017-02-09T03:47:12.255Z,0
2017-02-09T03:48:25.347Z,0
2017-02-09T03:49:38.447Z,0
2017-02-09T03:50:51.545Z,0
2017-02-09T03:52:04.635Z,0
2017-02-09T03:53:17.362Z,0
2017-02-09T03:54:30.460Z,0
2017-02-09T03:55:43.172Z,0
2017-02-09T03:56:56.278Z,0
2017-02-09T03:58:09.393Z,0
2017-02-09T03:59:22.485Z,0
2017-02-09T04:00:35.552Z,0
2017-02-09T04:01:48.575Z,0
2017-02-09T04:03:01.894Z,0
2017-02-09T04:04:14.964Z,0
2017-02-09T04:05:28.039Z,0
2017-02-09T04:06:40.732Z,0
2017-02-09T04:07:53.779Z,0
2017-02-09T04:09:06.830Z,0
2017-02-09T04:10:19.881Z,0
2017-02-09T04:11:32.921Z,0
2017-02-09T04:12:45.956Z,0
2017-02-09T04:13:59.027Z,0
2017-02-09T04:15:12.102Z,0
2017-02-09T04:16:25.153Z,0
2017-02-09T04:17:38.197Z,0
2017-02-09T04:18:51.244Z,0
2017-02-09T04:20:04.301Z,0
2017-02-09T04:21:17.385Z,0
2017-02-09T04:22:30.061Z,0
2017-02-09T04:23:42.753Z,0
2017-02-09T04:24:55.827Z,0
2017-02-09T04:26:08.888Z,0
2017-02-09T04:27:21.961Z,0
2017-02-09T04:28:35.007Z,0
2017-02-09T04:29:48.068Z,0
2017-02-09T04:31:01.104Z,0
2017-02-09T04:32:13.771Z,0
2017-02-09T04:33:26.431Z,0
2017-02-09T04:34:39.462Z,0
2017-02-09T04:35:52.498Z,0
2017-02-09T04:37:05.502Z,0
2017-02-09T04:38:18.139Z,0
2017-02-09T04:39:31.163Z,0
2017-02-09T04:40:44.415Z,0
2017-02-09T04:41:57.415Z,0
2017-02-09T04:43:10.451Z,0
2017-02-09T04:44:23.501Z,0
2017-02-09T04:45:36.519Z,0
2017-02-09T04:46:49.564Z,0
2017-02-09T04:48:02.593Z,0
2017-02-09T04:49:15.628Z,0
2017-02-09T04:50:28.674Z,0
2017-02-09T04:51:41.679Z,0
2017-02-09T04:52:54.714Z,0
2017-02-09T04:54:07.335Z,0
2017-02-09T04:55:19.960Z,0
2017-02-09T04:56:32.978Z,0
2017-02-09T04:57:45.977Z,0
2017-02-09T04:58:58.997Z,0
2017-02-09T05:00:12.001Z,0
2017-02-09T05:01:25.040Z,0
2017-02-09T05:02:37.668Z,0
2017-02-09T05:03:50.681Z,0
2017-02-09T05:05:03.686Z,0
2017-02-09T05:06:16.348Z,0
2017-02-09T05:07:29.398Z,0
2017-02-09T05:08:42.397Z,0
2017-02-09T05:09:55.397Z,0
2017-02-09T05:11:08.460Z,0
2017-02-09T05:12:21.485Z,0
2017-02-09T05:13:34.507Z,0
2017-02-09T05:14:47.145Z,0
2017-02-09T05:16:00.162Z,0
2017-02-09T05:17:12.792Z,0
2017-02-09T05:18:25.807Z,0
2017-02-09T05:19:38.886Z,0
2017-02-09T05:20:51.881Z,0
2017-02-09T05:22:04.533Z,0
2017-02-09T05:23:17.573Z,0
2017-02-09T05:24:30.610Z,0
2017-02-09T05:25:43.637Z,0
2017-02-09T05:26:56.635Z,0
2017-02-09T05:28:09.270Z,0
2017-02-09T05:29:22.277Z,0
2017-02-09T05:30:34.925Z,0
2017-02-09T05:31:47.984Z,0
2017-02-09T05:33:00.634Z,0
2017-02-09T05:34:13.674Z,0
2017-02-09T05:35:26.681Z,0
2017-02-09T05:36:39.697Z,0
2017-02-09T05:37:52.691Z,0
2017-02-09T05:39:05.744Z,0
2017-02-09T05:40:18.779Z,0
2017-02-09T05:41:31.778Z,0
2017-02-09T05:42:44.807Z,0
2017-02-09T05:43:57.845Z,0
2017-02-09T05:45:10.851Z,0
2017-02-09T05:46:23.869Z,0
2017-02-09T05:47:36.882Z,0
2017-02-09T05:48:49.907Z,0
2017-02-09T05:50:02.913Z,0
2017-02-09T05:51:16.191Z,0
2017-02-09T05:52:29.195Z,0
2017-02-09T05:53:42.213Z,0
2017-02-09T05:54:55.236Z,0
2017-02-09T05:56:08.229Z,0
2017-02-09T05:57:21.278Z,0
2017-02-09T05:58:34.290Z,0
2017-02-09T05:59:47.291Z,0
2017-02-09T06:01:00.308Z,0
2017-02-09T06:02:12.939Z,0
2017-02-09T06:03:26.203Z,0
2017-02-09T06:04:39.213Z,0
2017-02-09T06:05:52.229Z,0
2017-02-09T06:07:04.870Z,0
2017-02-09T06:08:17.870Z,0
2017-02-09T06:09:30.937Z,0
2017-02-09T06:10:43.959Z,0
2017-02-09T06:11:56.596Z,0
2017-02-09T06:13:09.620Z,0
2017-02-09T06:14:22.618Z,0
2017-02-09T06:15:35.636Z,0
2017-02-09T06:16:48.655Z,0
2017-02-09T06:18:01.930Z,0
2017-02-09T06:19:14.975Z,0
2017-02-09T06:20:27.999Z,0
2017-02-09T06:21:41.020Z,0
2017-02-09T06:22:54.012Z,0
2017-02-09T06:24:07.016Z,0
2017-02-09T06:25:19.661Z,0
2017-02-09T06:26:32.708Z,0
2017-02-09T06:27:45.754Z,0
2017-02-09T06:28:58.787Z,5
2017-02-09T06:30:11.808Z,5
2017-02-09T06:31:24.830Z,5
2017-02-09T06:32:37.455Z,5
2017-02-09T06:33:50.475Z,5
2017-02-09T06:35:03.125Z,10
2017-02-09T06:36:16.114Z,10
2017-02-09T06:37:29.138Z,10
2017-02-09T06:38:42.190Z,10
2017-02-09T06:39:55.201Z,10
2017-02-09T06:41:07.825Z,15
2017-02-09T06:42:20.878Z,15
2017-02-09T06:43:33.917Z,15
2017-02-09T06:44:46.960Z,20
2017-02-09T06:45:59.960Z,20
2017-02-09T06:47:13.001Z,20
2017-02-09T06:48:26.010Z,25
2017-02-09T06:49:39.055Z,25
2017-02-09T06:50:52.057Z,25
2017-02-09T06:52:05.060Z,30
2017-02-09T06:53:18.056Z,30
2017-02-09T06:54:31.064Z,35
2017-02-09T06:55:44.079Z,35
2017-02-09T06:56:57.100Z,40
2017-02-09T06:58:10.118Z,40
2017-02-09T06:59:23.141Z,45
2017-02-09T07:00:36.130Z,45
2017-02-09T07:01:49.140Z,50
2017-02-09T07:03:02.158Z,50
2017-02-09T07:04:15.178Z,55
2017-02-09T07:05:28.190Z,55
2017-02-09T07:06:40.812Z,60
2017-02-09T07:07:53.859Z,60
2017-02-09T07:09:06.859Z,65
2017-02-09T07:10:19.871Z,70
2017-02-09T07:11:32.894Z,70
2017-02-09T07:12:45.538Z,75
2017-02-09T07:13:58.569Z,75
2017-02-09T07:15:11.590Z,80
2017-02-09T07:16:24.228Z,80
2017-02-09T07:17:36.875Z,85
2017-02-09T07:18:50.172Z,85
2017-02-09T07:20:03.223Z,85
2017-02-09T07:21:15.886Z,90
2017-02-09T07:22:28.903Z,95
2017-02-09T07:23:41.910Z,95
2017-02-09T07:24:54.930Z,100
2017-02-09T07:26:07.923Z,100
2017-02-09T07:27:20.940Z,100
2017-02-09T07:28:33.965Z,105
2017-02-09T07:29:46.982Z,110
2017-02-09T07:31:00.014Z,110
2017-02-09T07:32:12.697Z,115
2017-02-09T07:33:25.753Z,115
2017-02-09T07:34:38.787Z,120
2017-02-09T07:35:51.795Z,120
2017-02-09T07:37:04.817Z,125
2017-02-09T07:38:17.825Z,130
2017-02-09T07:39:30.829Z,135
2017-02-09T07:40:43.853Z,140
2017-02-09T07:41:56.899Z,140
2017-02-09T07:43:09.559Z,145
2017-02-09T07:44:22.591Z,150
2017-02-09T07:45:35.857Z,155
2017-02-09T07:46:48.854Z,160
2017-02-09T07:48:01.901Z,160
2017-02-09T07:49:14.899Z,165
2017-02-09T07:50:27.920Z,165
2017-02-09T07:51:40.554Z,170
2017-02-09T07:52:53.562Z,175
2017-02-09T07:54:06.599Z,175
2017-02-09T07:55:19.624Z,180
2017-02-09T07:56:32.626Z,180
2017-02-09T07:57:45.645Z,185
2017-02-09T07:58:58.690Z,190
2017-02-09T08:00:11.725Z,190
2017-02-09T08:01:24.749Z,190
2017-02-09T08:02:37.766Z,195
2017-02-09T08:03:50.793Z,195
2017-02-09T08:05:03.797Z,200
2017-02-09T08:06:16.416Z,200
2017-02-09T08:07:29.440Z,205
2017-02-09T08:08:42.458Z,205
2017-02-09T08:09:55.502Z,205
2017-02-09T08:11:08.499Z,210
2017-02-09T08:12:21.537Z,210
2017-02-09T08:13:34.563Z,210
2017-02-09T08:14:47.177Z,215
2017-02-09T08:16:00.197Z,215
2017-02-09T08:17:13.222Z,215
2017-02-09T08:18:26.223Z,225
2017-02-09T08:19:39.266Z,225
2017-02-09T08:20:51.888Z,230
2017-02-09T08:22:04.889Z,235
2017-02-09T08:23:17.935Z,245
2017-02-09T08:24:31.024Z,250
2017-02-09T08:25:44.048Z,260
2017-02-09T08:26:57.086Z,270
2017-02-09T08:28:09.715Z,275
2017-02-09T08:29:22.715Z,275
2017-02-09T08:30:35.753Z,275
2017-02-09T08:31:48.786Z,280
2017-02-09T08:33:01.800Z,280
2017-02-09T08:34:14.462Z,280
2017-02-09T08:35:27.464Z,280
2017-02-09T08:36:40.077Z,280
2017-02-09T08:37:52.707Z,280
2017-02-09T08:39:05.720Z,280
2017-02-09T08:40:18.345Z,280
2017-02-09T08:41:30.987Z,285
2017-02-09T08:42:43.640Z,290
2017-02-09T08:43:56.317Z,290
2017-02-09T08:45:09.333Z,295
2017-02-09T08:46:22.371Z,295
2017-02-09T08:47:35.367Z,295
2017-02-09T08:48:48.377Z,300
2017-02-09T08:50:01.410Z,305
2017-02-09T08:51:14.418Z,310
2017-02-09T08:52:27.430Z,315
2017-02-09T08:53:40.081Z,320
2017-02-09T08:54:53.120Z,320
2017-02-09T08:56:06.114Z,320
2017-02-09T08:57:19.119Z,320
2017-02-09T08:58:32.162Z,315
2017-02-09T08:59:45.201Z,315
2017-02-09T09:00:57.833Z,315
2017-02-09T09:02:10.868Z,320
2017-02-09T09:03:23.872Z,320
2017-02-09T09:04:36.888Z,320
2017-02-09T09:05:49.907Z,330
2017-02-09T09:07:02.937Z,330
2017-02-09T09:08:15.938Z,340
2017-02-09T09:09:28.920Z,350
2017-02-09T09:10:41.930Z,355
2017-02-09T09:11:54.966Z,360
2017-02-09T09:13:08.008Z,365
2017-02-09T09:14:21.061Z,370
2017-02-09T09:15:33.707Z,375
2017-02-09T09:16:46.728Z,375
2017-02-09T09:17:59.741Z,375
2017-02-09T09:19:12.764Z,370
2017-02-09T09:20:25.392Z,370
2017-02-09T09:21:38.013Z,370
2017-02-09T09:22:51.025Z,375
2017-02-09T09:24:04.045Z,380
2017-02-09T09:25:17.074Z,380
2017-02-09T09:26:29.722Z,380
2017-02-09T09:27:42.371Z,385
2017-02-09T09:28:54.993Z,390
2017-02-09T09:30:07.638Z,395
2017-02-09T09:31:20.658Z,405
2017-02-09T09:32:33.320Z,415
2017-02-09T09:33:46.341Z,420
2017-02-09T09:34:59.366Z,425
2017-02-09T09:36:12.380Z,430
2017-02-09T09:37:25.408Z,435
2017-02-09T09:38:38.426Z,440
2017-02-09T09:39:51.446Z,440
2017-02-09T09:41:04.464Z,445
2017-02-09T09:42:17.464Z,450
2017-02-09T09:43:30.509Z,460
2017-02-09T09:44:43.554Z,460
2017-02-09T09:45:56.576Z,470
2017-02-09T09:47:09.596Z,485
2017-02-09T09:48:21.864Z,495
2017-02-09T09:49:34.892Z,505
2017-02-09T09:50:47.905Z,510
2017-02-09T09:52:00.914Z,515
2017-02-09T09:53:13.598Z,515
2017-02-09T09:54:26.630Z,520
2017-02-09T09:55:39.668Z,520
2017-02-09T09:56:52.685Z,515
2017-02-09T09:58:05.717Z,515
2017-02-09T09:59:18.756Z,505
2017-02-09T10:00:31.024Z,500
2017-02-09T10:01:44.049Z,495
2017-02-09T10:02:56.699Z,490
2017-02-09T10:04:09.715Z,480
2017-02-09T10:05:22.744Z,475
2017-02-09T10:06:35.406Z,480
2017-02-09T10:07:48.061Z,485
2017-02-09T10:09:01.072Z,495
2017-02-09T10:10:14.093Z,510
2017-02-09T10:11:26.371Z,520
2017-02-09T10:12:39.414Z,530
2017-02-09T10:13:52.439Z,530
2017-02-09T10:15:05.102Z,535
2017-02-09T10:16:18.144Z,530
2017-02-09T10:17:30.790Z,525
2017-02-09T10:18:43.410Z,525
2017-02-09T10:19:56.409Z,520
2017-02-09T10:21:09.405Z,525
2017-02-09T10:22:22.435Z,530
2017-02-09T10:23:35.473Z,530
2017-02-09T10:24:48.527Z,525
2017-02-09T10:26:01.551Z,520
2017-02-09T10:27:14.192Z,520
2017-02-09T10:28:26.040Z,520
2017-02-09T10:29:38.710Z,520
2017-02-09T10:30:51.348Z,520
2017-02-09T10:32:04.001Z,530
2017-02-09T10:33:17.024Z,530
2017-02-09T10:34:30.081Z,530
2017-02-09T10:35:42.707Z,530
2017-02-09T10:36:55.761Z,540
2017-02-09T10:38:08.656Z,545
2017-02-09T10:39:21.691Z,545
2017-02-09T10:40:34.694Z,545
2017-02-09T10:41:47.343Z,550
2017-02-09T10:43:00.353Z,550
2017-02-09T10:44:13.380Z,560
2017-02-09T10:45:25.632Z,565
2017-02-09T10:46:38.642Z,565
2017-02-09T10:47:51.269Z,575
2017-02-09T10:49:04.287Z,575
2017-02-09T10:50:16.939Z,585
2017-02-09T10:51:29.574Z,590
2017-02-09T10:52:42.580Z,580
2017-02-09T10:53:55.599Z,575
2017-02-09T10:55:08.624Z,580
2017-02-09T10:56:21.667Z,585
2017-02-09T10:57:34.704Z,580
2017-02-09T10:58:47.725Z,590
2017-02-09T11:00:00.731Z,595
2017-02-09T11:01:13.744Z,600
2017-02-09T11:02:25.620Z,595
2017-02-09T11:03:38.237Z,595
2017-02-09T11:04:51.283Z,590
2017-02-09T11:06:04.326Z,590
2017-02-09T11:07:16.936Z,590
2017-02-09T11:08:29.967Z,595
2017-02-09T11:09:43.014Z,595
2017-02-09T11:10:56.038Z,595
2017-02-09T11:12:08.687Z,600
2017-02-09T11:13:21.330Z,605
2017-02-09T11:14:34.374Z,615
2017-02-09T11:15:47.421Z,620
2017-02-09T11:17:00.465Z,625
2017-02-09T11:18:12.716Z,630
2017-02-09T11:19:24.588Z,630
2017-02-09T11:20:37.617Z,630
2017-02-09T11:21:50.647Z,630
2017-02-09T11:23:03.645Z,635
2017-02-09T11:24:16.672Z,635
2017-02-09T11:25:29.363Z,645
2017-02-09T11:26:42.384Z,655
2017-02-09T11:27:55.404Z,660
2017-02-09T11:29:08.429Z,660
2017-02-09T11:30:21.075Z,650
2017-02-09T11:31:34.099Z,640
2017-02-09T11:32:47.133Z,630
2017-02-09T11:33:59.791Z,625
2017-02-09T11:35:12.084Z,630
2017-02-09T11:36:24.697Z,630
2017-02-09T11:37:37.729Z,630
2017-02-09T11:38:50.776Z,645
2017-02-09T11:40:03.788Z,645
2017-02-09T11:41:16.830Z,645
2017-02-09T11:42:29.861Z,635
2017-02-09T11:43:42.897Z,630
2017-02-09T11:44:55.904Z,635
2017-02-09T11:46:08.949Z,630
2017-02-09T11:47:21.588Z,620
2017-02-09T11:48:34.637Z,620
2017-02-09T11:49:47.655Z,615
2017-02-09T11:51:00.675Z,625
2017-02-09T11:52:13.318Z,625
2017-02-09T11:53:26.351Z,625
2017-02-09T11:54:39.396Z,620
2017-02-09T11:55:52.063Z,620
2017-02-09T11:57:05.062Z,625
2017-02-09T11:58:17.322Z,615
2017-02-09T11:59:30.356Z,615
2017-02-09T12:00:43.372Z,615
2017-02-09T12:01:56.389Z,615
2017-02-09T12:03:09.406Z,605
2017-02-09T12:04:22.439Z,605
2017-02-09T12:05:35.484Z,600
2017-02-09T12:06:48.543Z,600
2017-02-09T12:08:01.571Z,600
2017-02-09T12:09:14.189Z,610
2017-02-09T12:10:26.813Z,610
2017-02-09T12:11:39.837Z,605
2017-02-09T12:12:52.084Z,595
2017-02-09T12:14:05.092Z,585
2017-02-09T12:15:17.773Z,595
2017-02-09T12:16:30.799Z,605
2017-02-09T12:17:43.464Z,610
2017-02-09T12:18:56.488Z,600
2017-02-09T12:20:09.506Z,590
2017-02-09T12:21:21.755Z,595
2017-02-09T12:22:34.790Z,595
2017-02-09T12:23:47.814Z,565
2017-02-09T12:25:00.839Z,560
2017-02-09T12:26:13.478Z,545
2017-02-09T12:27:26.502Z,535
2017-02-09T12:28:39.530Z,530
2017-02-09T12:29:52.590Z,520
2017-02-09T12:31:05.621Z,515
2017-02-09T12:32:18.689Z,485
2017-02-09T12:33:31.706Z,475
2017-02-09T12:34:44.352Z,480
2017-02-09T12:35:57.381Z,485
2017-02-09T12:37:10.401Z,520
2017-02-09T12:38:23.279Z,535
2017-02-09T12:39:36.284Z,535
2017-02-09T12:40:49.292Z,530
2017-02-09T12:42:02.337Z,530
2017-02-09T12:43:14.977Z,535
2017-02-09T12:44:28.014Z,550
2017-02-09T12:45:41.023Z,540
2017-02-09T12:46:54.068Z,525
2017-02-09T12:48:07.103Z,495
2017-02-09T12:49:20.114Z,475
2017-02-09T12:50:32.777Z,480
2017-02-09T12:51:45.416Z,480
2017-02-09T12:52:58.427Z,440
2017-02-09T12:54:11.439Z,410
2017-02-09T12:55:23.690Z,390
2017-02-09T12:56:36.724Z,395
2017-02-09T12:57:49.771Z,385
2017-02-09T12:59:02.798Z,370
2017-02-09T13:00:15.841Z,350
2017-02-09T13:01:28.492Z,340
2017-02-09T13:02:41.536Z,345
2017-02-09T13:03:54.548Z,340
2017-02-09T13:05:07.207Z,335
2017-02-09T13:06:19.852Z,340
2017-02-09T13:07:32.873Z,345
2017-02-09T13:08:45.545Z,350
2017-02-09T13:09:58.577Z,330
2017-02-09T13:11:11.228Z,310
2017-02-09T13:12:24.228Z,310
2017-02-09T13:13:37.248Z,315
2017-02-09T13:14:49.495Z,315
2017-02-09T13:16:02.519Z,320
2017-02-09T13:17:15.166Z,325
2017-02-09T13:18:28.207Z,320
2017-02-09T13:19:41.230Z,320
2017-02-09T13:20:54.253Z,310
2017-02-09T13:22:07.270Z,315
2017-02-09T13:23:19.890Z,310
2017-02-09T13:24:32.912Z,310
2017-02-09T13:25:45.558Z,305
2017-02-09T13:26:58.583Z,305
2017-02-09T13:28:10.846Z,305
2017-02-09T13:29:23.899Z,300
2017-02-09T13:30:36.945Z,295
2017-02-09T13:31:49.982Z,285
2017-02-09T13:33:01.834Z,290
2017-02-09T13:34:14.496Z,295
2017-02-09T13:35:27.521Z,295
2017-02-09T13:36:40.564Z,290
2017-02-09T13:37:53.591Z,285
2017-02-09T13:39:06.592Z,275
2017-02-09T13:40:19.601Z,265
2017-02-09T13:41:32.633Z,260
2017-02-09T13:42:45.300Z,255
2017-02-09T13:43:58.289Z,260
2017-02-09T13:45:11.294Z,260
2017-02-09T13:46:24.305Z,255
2017-02-09T13:47:37.319Z,245
2017-02-09T13:48:50.329Z,250
2017-02-09T13:50:03.330Z,250
2017-02-09T13:51:15.963Z,245
2017-02-09T13:52:28.970Z,240
2017-02-09T13:53:42.007Z,240
2017-02-09T13:54:55.033Z,235
2017-02-09T13:56:08.047Z,230
2017-02-09T13:57:21.081Z,225
2017-02-09T13:58:34.128Z,220
2017-02-09T13:59:47.139Z,225
2017-02-09T14:01:00.164Z,225
2017-02-09T14:02:13.183Z,235
2017-02-09T14:03:25.836Z,245
2017-02-09T14:04:38.854Z,250
2017-02-09T14:05:51.868Z,255
2017-02-09T14:07:04.897Z,260
2017-02-09T14:08:17.538Z,260
2017-02-09T14:09:30.556Z,260
2017-02-09T14:10:43.574Z,265
2017-02-09T14:11:56.201Z,265
2017-02-09T14:13:09.226Z,260
2017-02-09T14:14:22.239Z,260
2017-02-09T14:15:34.885Z,250
2017-02-09T14:16:47.928Z,250
2017-02-09T14:18:00.559Z,245
2017-02-09T14:19:13.196Z,245
2017-02-09T14:20:26.198Z,245
2017-02-09T14:21:39.239Z,250
2017-02-09T14:22:52.310Z,250
2017-02-09T14:24:04.969Z,245
2017-02-09T14:25:17.231Z,245
2017-02-09T14:26:30.281Z,240
2017-02-09T14:27:43.323Z,235
2017-02-09T14:28:55.549Z,235
2017-02-09T14:30:08.614Z,230
2017-02-09T14:31:21.638Z,225
2017-02-09T14:32:34.686Z,215
2017-02-09T14:33:47.730Z,205
2017-02-09T14:35:00.754Z,195
2017-02-09T14:36:13.395Z,185
2017-02-09T14:37:26.436Z,180
2017-02-09T14:38:39.461Z,175
2017-02-09T14:39:52.505Z,170
2017-02-09T14:41:05.174Z,170
2017-02-09T14:42:17.828Z,170
2017-02-09T14:43:30.861Z,165
2017-02-09T14:44:43.867Z,160
2017-02-09T14:45:56.857Z,160
2017-02-09T14:47:09.901Z,165
2017-02-09T14:48:22.520Z,170
2017-02-09T14:49:35.569Z,170
2017-02-09T14:50:48.615Z,170
2017-02-09T14:52:01.662Z,170
2017-02-09T14:53:14.315Z,165
2017-02-09T14:54:27.336Z,165
2017-02-09T14:55:39.982Z,160
2017-02-09T14:56:52.649Z,160
2017-02-09T14:58:05.664Z,155
2017-02-09T14:59:18.315Z,155
2017-02-09T15:00:31.340Z,150
2017-02-09T15:01:44.375Z,150
2017-02-09T15:02:57.011Z,150
2017-02-09T15:04:09.667Z,145
2017-02-09T15:05:22.686Z,140
2017-02-09T15:06:35.690Z,140
2017-02-09T15:07:48.678Z,130
2017-02-09T15:09:01.683Z,130
2017-02-09T15:10:14.682Z,130
2017-02-09T15:11:27.716Z,125
2017-02-09T15:12:40.396Z,120
2017-02-09T15:13:53.409Z,120
2017-02-09T15:15:06.045Z,115
2017-02-09T15:16:19.087Z,115
2017-02-09T15:17:31.347Z,110
2017-02-09T15:18:44.367Z,105
2017-02-09T15:19:57.352Z,105
2017-02-09T15:21:10.391Z,100
2017-02-09T15:22:23.032Z,100
2017-02-09T15:23:36.057Z,100
2017-02-09T15:24:49.121Z,95
2017-02-09T15:26:02.144Z,95
2017-02-09T15:27:15.174Z,95
2017-02-09T15:28:28.209Z,90
2017-02-09T15:29:41.234Z,90
2017-02-09T15:30:54.276Z,90
2017-02-09T15:32:07.261Z,85
2017-02-09T15:33:20.250Z,85
2017-02-09T15:34:33.271Z,80
2017-02-09T15:35:45.895Z,75
2017-02-09T15:36:58.540Z,75
2017-02-09T15:38:11.563Z,70
2017-02-09T15:39:24.600Z,70
2017-02-09T15:40:37.242Z,65
2017-02-09T15:41:50.266Z,65
2017-02-09T15:43:03.316Z,60
2017-02-09T15:44:15.958Z,55
2017-02-09T15:45:28.986Z,55
2017-02-09T15:46:42.029Z,50
2017-02-09T15:47:55.021Z,45
2017-02-09T15:49:08.051Z,45
2017-02-09T15:50:20.713Z,40
2017-02-09T15:51:33.764Z,40
2017-02-09T15:52:46.801Z,35
2017-02-09T15:53:59.458Z,35
2017-02-09T15:55:12.119Z,35
2017-02-09T15:56:24.767Z,30
2017-02-09T15:57:37.789Z,30
2017-02-09T15:58:50.818Z,25
2017-02-09T16:00:03.862Z,25
2017-02-09T16:01:16.508Z,20
2017-02-09T16:02:29.574Z,20
2017-02-09T16:03:42.600Z,15
2017-02-09T16:04:55.636Z,15
2017-02-09T16:06:08.643Z,15
2017-02-09T16:07:21.660Z,10
2017-02-09T16:08:34.687Z,10
2017-02-09T16:09:47.327Z,10
2017-02-09T16:11:00.340Z,10
2017-02-09T16:12:13.365Z,5
2017-02-09T16:13:26.357Z,5
2017-02-09T16:14:39.364Z,5
2017-02-09T16:15:52.005Z,5
2017-02-09T16:17:05.019Z,5
2017-02-09T16:18:18.040Z,5
2017-02-09T16:19:31.088Z,0
2017-02-09T16:20:44.117Z,0
2017-02-09T16:21:57.164Z,0
2017-02-09T16:23:09.811Z,0
2017-02-09T16:24:22.798Z,0
2017-02-09T16:25:35.829Z,0
2017-02-09T16:26:48.472Z,0
2017-02-09T16:28:01.484Z,0
2017-02-09T16:29:14.509Z,0
2017-02-09T16:30:27.535Z,0
2017-02-09T16:31:40.177Z,0
2017-02-09T16:32:53.178Z,0
2017-02-09T16:34:05.443Z,0
2017-02-09T16:35:17.711Z,0
2017-02-09T16:36:30.735Z,0
2017-02-09T16:37:43.731Z,0
2017-02-09T16:38:56.360Z,0
2017-02-09T16:40:09.379Z,0
2017-02-09T16:41:22.401Z,0
2017-02-09T16:42:35.441Z,0
2017-02-09T16:43:48.483Z,0
2017-02-09T16:45:01.500Z,0
2017-02-09T16:46:14.528Z,0
2017-02-09T16:47:27.542Z,0
2017-02-09T16:48:40.537Z,0
2017-02-09T16:49:53.558Z,0
2017-02-09T16:51:06.607Z,0
2017-02-09T16:52:19.657Z,0
2017-02-09T16:53:32.655Z,0
2017-02-09T16:54:45.325Z,0
2017-02-09T16:55:57.942Z,0
2017-02-09T16:57:10.966Z,0
2017-02-09T16:58:23.608Z,0
2017-02-09T16:59:36.884Z,0
2017-02-09T17:00:49.874Z,0
2017-02-09T17:02:02.870Z,0
2017-02-09T17:03:15.896Z,0
2017-02-09T17:04:28.920Z,0
2017-02-09T17:05:41.933Z,0
2017-02-09T17:06:54.957Z,0
2017-02-09T17:08:07.606Z,0
2017-02-09T17:09:20.270Z,0
2017-02-09T17:10:33.300Z,0
2017-02-09T17:11:46.345Z,0
2017-02-09T17:12:59.362Z,0
2017-02-09T17:14:12.361Z,0
2017-02-09T17:15:25.407Z,0
2017-02-09T17:16:38.452Z,0
2017-02-09T17:17:51.496Z,0
2017-02-09T17:19:04.534Z,0
2017-02-09T17:20:17.167Z,0